Terminal Aerodrome Forecast
Issued by NWS

Home | Current Version | Previous Version | Text Only | Print | Product List | Glossary On
Versions: 1 2 3 4 5 6 7 8 9 10 11 12 13 14 15 16
000
FTUS41 KCLE 211124
TAFFDY
TAF
KFDY 211124Z 2112/2212 15010KT P6SM OVC100
     FM211500 21010KT P6SM OVC050
      TEMPO 2119/2122 6SM -SHRA
     FM212300 21006KT P6SM OVC025
     FM220400 VRB03KT 3SM BR OVC012=

USA.gov is the U.S. government's official web portal to all federal, state and local government web resources and services.